Time;durP1;ratioP1;P1;durP2;ratioP2;P2;SDS_P1;SDS_P2;PMS_P1;PMS_P2;Temp;Humidity;BMP_temperature;BMP_pressure;BME280_temperature;BME280_humidity;BME280_pressure;Samples;Min_cycle;Max_cycle;Signal;HPM_P1;HPM_P2
2023/10/17 00:01:35;;;;;;;;;;;9.30;91.20;;;;;;5078737;28;20002;-46
2023/10/17 00:06:50;;;;;;;;;;;9.30;91.30;;;;;;5081705;28;19908;-46
2023/10/17 00:09:26;;;;;;;;;;;9.30;91.20;;;;;;5072821;28;19909;-46
2023/10/17 00:14:20;;;;;;;;;;;9.30;91.10;;;;;;5072060;28;19959;-47
2023/10/17 00:16:50;;;;;;;;;;;9.30;91.10;;;;;;5073189;28;20302;-49
2023/10/17 00:19:18;;;;;;;;;;;9.30;91.00;;;;;;5073159;28;20372;-46
2023/10/17 00:21:45;;;;;;;;;;;9.20;91.00;;;;;;5073050;28;20609;-47
2023/10/17 00:24:13;;;;;;;;;;;9.20;91.10;;;;;;5074797;28;19991;-47
2023/10/17 00:26:41;;;;;;;;;;;9.20;91.20;;;;;;5071808;28;19922;-47
2023/10/17 00:29:09;;;;;;;;;;;9.20;91.20;;;;;;5084094;28;20466;-47
2023/10/17 00:31:39;;;;;;;;;;;9.20;91.20;;;;;;5055258;28;20007;-46
2023/10/17 00:34:13;;;;;;;;;;;9.30;91.20;;;;;;5072888;28;19908;-47
2023/10/17 00:37:11;;;;;;;;;;;9.20;91.20;;;;;;5072093;28;19920;-46
2023/10/17 00:39:37;;;;;;;;;;;9.20;91.20;;;;;;5091164;28;19978;-46
2023/10/17 00:44:36;;;;;;;;;;;9.20;91.10;;;;;;5084287;28;19943;-46
2023/10/17 00:47:05;;;;;;;;;;;9.20;91.20;;;;;;5091837;28;19912;-46
2023/10/17 00:49:45;;;;;;;;;;;9.20;91.00;;;;;;5075415;28;19912;-47
2023/10/17 00:52:24;;;;;;;;;;;9.20;91.10;;;;;;5088164;28;20276;-46
2023/10/17 00:54:53;;;;;;;;;;;9.20;91.10;;;;;;5095994;28;19915;-46
2023/10/17 00:57:28;;;;;;;;;;;9.20;91.10;;;;;;5111726;28;20332;-46
2023/10/17 00:59:55;;;;;;;;;;;9.20;91.00;;;;;;5095711;28;20010;-47
2023/10/17 01:02:22;;;;;;;;;;;9.20;91.10;;;;;;5092909;28;19907;-47
2023/10/17 01:04:50;;;;;;;;;;;9.20;91.10;;;;;;5095796;28;19916;-46
2023/10/17 01:07:25;;;;;;;;;;;9.20;91.10;;;;;;5113120;28;19934;-49
2023/10/17 01:09:55;;;;;;;;;;;9.20;91.00;;;;;;5092906;28;19995;-48
2023/10/17 01:12:28;;;;;;;;;;;9.20;91.10;;;;;;5098125;28;19972;-46
2023/10/17 01:14:55;;;;;;;;;;;9.20;91.10;;;;;;5113156;28;19987;-48
2023/10/17 01:17:24;;;;;;;;;;;9.20;91.00;;;;;;5112995;28;19915;-46
2023/10/17 01:19:53;;;;;;;;;;;9.20;91.00;;;;;;5095844;28;19915;-48
2023/10/17 01:22:20;;;;;;;;;;;9.20;91.00;;;;;;5082124;28;19915;-46
2023/10/17 01:24:46;;;;;;;;;;;9.20;90.90;;;;;;5115895;28;20465;-48
2023/10/17 01:27:14;;;;;;;;;;;9.20;90.90;;;;;;5116572;28;19908;-48
2023/10/17 01:29:43;;;;;;;;;;;9.20;90.90;;;;;;5110432;28;19912;-47
2023/10/17 01:32:09;;;;;;;;;;;9.30;90.90;;;;;;5097018;28;19969;-47
2023/10/17 01:34:36;;;;;;;;;;;9.20;90.80;;;;;;5098489;28;19916;-48
2023/10/17 01:37:07;;;;;;;;;;;9.20;90.80;;;;;;5099244;28;20006;-46
2023/10/17 01:39:34;;;;;;;;;;;9.20;90.80;;;;;;5108578;28;19908;-48
2023/10/17 01:42:04;;;;;;;;;;;9.20;90.80;;;;;;5096335;28;19904;-46
2023/10/17 01:44:32;;;;;;;;;;;9.20;90.80;;;;;;5099482;28;19908;-47
2023/10/17 01:46:58;;;;;;;;;;;9.20;90.80;;;;;;5095962;28;19916;-46
2023/10/17 01:49:28;;;;;;;;;;;9.20;90.80;;;;;;5101408;28;19960;-51
2023/10/17 01:51:57;;;;;;;;;;;9.20;90.70;;;;;;5115821;27;20325;-47
2023/10/17 01:54:23;;;;;;;;;;;9.20;90.80;;;;;;5107055;28;20280;-48
2023/10/17 01:56:50;;;;;;;;;;;9.10;90.80;;;;;;5095933;28;19915;-46
2023/10/17 01:59:17;;;;;;;;;;;9.20;90.90;;;;;;5108530;28;20033;-47
2023/10/17 02:01:45;;;;;;;;;;;9.20;90.80;;;;;;5095776;28;19986;-46
2023/10/17 02:04:13;;;;;;;;;;;9.20;90.90;;;;;;5095459;28;19904;-48
2023/10/17 02:06:50;;;;;;;;;;;9.10;90.90;;;;;;5095491;28;20003;-46
2023/10/17 02:12:00;;;;;;;;;;;9.10;91.00;;;;;;5109021;28;19973;-46
2023/10/17 02:14:26;;;;;;;;;;;9.20;91.00;;;;;;5110724;28;19911;-48
2023/10/17 02:16:55;;;;;;;;;;;9.20;91.10;;;;;;5107167;28;20005;-46
2023/10/17 02:19:25;;;;;;;;;;;9.20;91.20;;;;;;5095312;28;19904;-47
2023/10/17 02:22:02;;;;;;;;;;;9.20;91.20;;;;;;5115673;28;19911;-47
2023/10/17 02:24:29;;;;;;;;;;;9.20;91.30;;;;;;5106075;28;19911;-48
2023/10/17 02:26:56;;;;;;;;;;;9.10;91.30;;;;;;5116002;28;19903;-47
2023/10/17 02:29:26;;;;;;;;;;;9.20;91.40;;;;;;5114893;28;19918;-46
2023/10/17 02:31:54;;;;;;;;;;;9.20;91.40;;;;;;5097126;28;20020;-47
2023/10/17 02:34:40;;;;;;;;;;;9.20;91.40;;;;;;5097136;28;19916;-47
2023/10/17 02:37:10;;;;;;;;;;;9.20;91.40;;;;;;5094131;28;20230;-49
2023/10/17 02:39:37;;;;;;;;;;;9.20;91.40;;;;;;5078208;28;19963;-46
2023/10/17 02:42:07;;;;;;;;;;;9.20;91.40;;;;;;5095138;28;19904;-47
2023/10/17 02:44:39;;;;;;;;;;;9.20;91.40;;;;;;5106754;28;19954;-47
2023/10/17 02:47:15;;;;;;;;;;;9.20;91.40;;;;;;5115604;28;19911;-48
2023/10/17 02:49:43;;;;;;;;;;;9.20;91.50;;;;;;5097135;28;20030;-47
2023/10/17 02:52:09;;;;;;;;;;;9.20;91.50;;;;;;5109759;28;20366;-47
2023/10/17 02:54:59;;;;;;;;;;;9.20;91.60;;;;;;5115117;28;20012;-49
2023/10/17 02:57:32;;;;;;;;;;;9.20;91.70;;;;;;5115212;28;20374;-47
2023/10/17 03:00:19;;;;;;;;;;;9.20;91.60;;;;;;5113703;28;19912;-47
2023/10/17 03:02:48;;;;;;;;;;;9.20;91.60;;;;;;5114302;28;19903;-47
2023/10/17 03:05:15;;;;;;;;;;;9.20;91.70;;;;;;5105114;28;19915;-46
2023/10/17 03:07:42;;;;;;;;;;;9.20;91.70;;;;;;5094626;28;19908;-48
2023/10/17 03:10:09;;;;;;;;;;;9.30;91.60;;;;;;5105450;28;20259;-48
2023/10/17 03:12:50;;;;;;;;;;;9.20;91.60;;;;;;5114755;28;20004;-47
2023/10/17 03:15:18;;;;;;;;;;;9.20;91.50;;;;;;5109011;28;19995;-47
2023/10/17 03:17:53;;;;;;;;;;;9.20;91.60;;;;;;5111207;28;20336;-47
2023/10/17 03:20:36;;;;;;;;;;;9.20;91.50;;;;;;5110780;28;19918;-46
2023/10/17 03:23:08;;;;;;;;;;;9.20;91.60;;;;;;5114473;28;19907;-47
2023/10/17 03:25:40;;;;;;;;;;;9.20;91.60;;;;;;5114683;28;19908;-47
2023/10/17 03:28:13;;;;;;;;;;;9.20;91.50;;;;;;5103970;28;19912;-46
2023/10/17 03:30:38;;;;;;;;;;;9.20;91.60;;;;;;5112068;28;20001;-46
2023/10/17 03:38:36;;;;;;;;;;;9.20;91.60;;;;;;5094431;28;19966;-48
2023/10/17 03:41:24;;;;;;;;;;;9.20;91.70;;;;;;5096943;28;19915;-47
2023/10/17 03:43:54;;;;;;;;;;;9.20;91.70;;;;;;5110197;28;19907;-49
2023/10/17 03:46:35;;;;;;;;;;;9.20;91.60;;;;;;5098323;28;19908;-48
2023/10/17 03:49:10;;;;;;;;;;;9.20;91.50;;;;;;5085033;28;20298;-47
2023/10/17 03:51:39;;;;;;;;;;;9.10;91.50;;;;;;5080177;28;19958;-47
2023/10/17 03:54:06;;;;;;;;;;;9.10;91.60;;;;;;5107043;28;19915;-47
2023/10/17 03:56:45;;;;;;;;;;;9.20;91.70;;;;;;5114022;28;19911;-48
2023/10/17 04:01:57;;;;;;;;;;;9.20;91.70;;;;;;5113891;28;19918;-47
2023/10/17 04:05:06;;;;;;;;;;;9.20;91.80;;;;;;5085480;28;19916;-47
2023/10/17 04:07:26;;;;;;;;;;;9.20;91.80;;;;;;5076535;28;19927;-48
2023/10/17 04:12:38;;;;;;;;;;;9.20;91.70;;;;;;5096549;28;20422;-47
2023/10/17 04:15:10;;;;;;;;;;;9.20;91.80;;;;;;5099939;28;19912;-47
2023/10/17 04:17:37;;;;;;;;;;;9.20;91.80;;;;;;5096573;28;20371;-47
2023/10/17 04:20:16;;;;;;;;;;;9.20;91.70;;;;;;5104185;28;19998;-47
2023/10/17 04:22:44;;;;;;;;;;;9.10;91.70;;;;;;5104033;28;19938;-47
2023/10/17 04:27:59;;;;;;;;;;;9.20;91.70;;;;;;5093104;28;19915;-47
2023/10/17 04:30:30;;;;;;;;;;;9.20;91.80;;;;;;5100232;28;20003;-47
2023/10/17 04:33:14;;;;;;;;;;;9.10;91.80;;;;;;5093416;28;19998;-49
2023/10/17 04:35:53;;;;;;;;;;;9.20;91.90;;;;;;5095333;28;20612;-48
2023/10/17 04:38:36;;;;;;;;;;;9.20;91.90;;;;;;5095962;28;19915;-47
2023/10/17 04:41:17;;;;;;;;;;;9.10;91.80;;;;;;5112880;28;20351;-47
2023/10/17 04:44:04;;;;;;;;;;;9.20;91.90;;;;;;5091712;28;19923;-49
2023/10/17 04:46:50;;;;;;;;;;;9.20;91.90;;;;;;5093264;28;19904;-47
2023/10/17 04:49:24;;;;;;;;;;;9.10;91.90;;;;;;5093022;28;19957;-49
2023/10/17 04:52:05;;;;;;;;;;;9.10;92.00;;;;;;5092903;28;19911;-47
2023/10/17 04:54:43;;;;;;;;;;;9.10;92.10;;;;;;5107292;28;20662;-47
2023/10/17 04:57:16;;;;;;;;;;;9.10;92.10;;;;;;5117587;28;20371;-50
2023/10/17 06:19:09;;;;;;;;;;;9.10;92.00;;;;;;5095594;28;19931;-50
2023/10/17 06:21:38;;;;;;;;;;;9.10;92.00;;;;;;5096498;28;19911;-47
2023/10/17 06:24:06;;;;;;;;;;;9.20;92.00;;;;;;5095476;28;19912;-49
2023/10/17 06:35:03;;;;;;;;;;;9.20;91.80;;;;;;5095249;28;19973;-47
2023/10/17 06:37:32;;;;;;;;;;;9.20;91.80;;;;;;5094923;28;19946;-49
2023/10/17 06:40:00;;;;;;;;;;;9.20;91.80;;;;;;5095268;28;19908;-47
2023/10/17 06:42:38;;;;;;;;;;;9.20;91.80;;;;;;5106419;28;19912;-47
2023/10/17 06:45:10;;;;;;;;;;;9.30;91.80;;;;;;5115044;28;19912;-49
2023/10/17 06:47:49;;;;;;;;;;;9.30;91.70;;;;;;5093407;28;19990;-48
2023/10/17 06:55:28;;;;;;;;;;;9.40;91.80;;;;;;5106816;28;20423;-47
2023/10/17 06:58:08;;;;;;;;;;;9.40;91.90;;;;;;5115589;28;19947;-47
2023/10/17 07:00:52;;;;;;;;;;;9.40;91.80;;;;;;5114482;28;19908;-48
2023/10/17 07:03:26;;;;;;;;;;;9.50;91.70;;;;;;5095616;28;19924;-47
2023/10/17 07:06:02;;;;;;;;;;;9.50;91.70;;;;;;5110518;28;19912;-48
2023/10/17 07:08:36;;;;;;;;;;;9.50;91.60;;;;;;5077359;28;19930;-50
2023/10/17 07:11:02;;;;;;;;;;;9.50;91.50;;;;;;5100881;28;19903;-51
2023/10/17 07:13:49;;;;;;;;;;;9.60;91.50;;;;;;5111258;28;19916;-48
2023/10/17 07:16:25;;;;;;;;;;;9.60;91.20;;;;;;5113458;28;19908;-50
2023/10/17 07:18:52;;;;;;;;;;;9.60;91.20;;;;;;5114417;28;19966;-47
2023/10/17 07:21:23;;;;;;;;;;;9.70;91.30;;;;;;5100999;28;19908;-47
2023/10/17 07:23:54;;;;;;;;;;;9.80;91.10;;;;;;5094611;28;19908;-47
2023/10/17 07:28:52;;;;;;;;;;;9.80;90.90;;;;;;5111679;28;20241;-48
2023/10/17 07:31:22;;;;;;;;;;;9.80;90.50;;;;;;5114460;28;19974;-48
2023/10/17 07:36:43;;;;;;;;;;;9.90;90.20;;;;;;5051362;28;19923;-48
2023/10/17 07:39:24;;;;;;;;;;;10.00;90.10;;;;;;5111604;28;19904;-48
2023/10/17 07:41:58;;;;;;;;;;;10.00;89.90;;;;;;5113914;28;19912;-49
2023/10/17 07:44:26;;;;;;;;;;;10.20;89.80;;;;;;5106280;28;19994;-48
2023/10/17 07:49:41;;;;;;;;;;;10.20;89.30;;;;;;5093837;28;19970;-48
2023/10/17 07:52:17;;;;;;;;;;;10.30;89.30;;;;;;5103027;28;20360;-48
2023/10/17 07:54:55;;;;;;;;;;;10.30;89.30;;;;;;5093197;28;19934;-50
2023/10/17 07:57:26;;;;;;;;;;;10.40;89.10;;;;;;5096200;28;19912;-48
2023/10/17 07:59:52;;;;;;;;;;;10.40;88.90;;;;;;5113292;28;19927;-49
2023/10/17 08:02:20;;;;;;;;;;;10.50;88.80;;;;;;5097871;28;20424;-49
2023/10/17 08:04:48;;;;;;;;;;;10.60;88.50;;;;;;5093482;28;19904;-48
2023/10/17 08:07:16;;;;;;;;;;;10.60;87.90;;;;;;5093580;28;19920;-49
2023/10/17 08:10:09;;;;;;;;;;;10.60;87.50;;;;;;5084760;28;19920;-48
2023/10/17 08:12:38;;;;;;;;;;;10.60;87.00;;;;;;5093589;28;19908;-51
2023/10/17 08:15:22;;;;;;;;;;;10.80;87.00;;;;;;5093151;28;19919;-50
2023/10/17 08:17:49;;;;;;;;;;;10.80;86.50;;;;;;5093321;28;19912;-49
2023/10/17 08:23:26;;;;;;;;;;;11.20;86.10;;;;;;5111162;28;19903;-49
2023/10/17 08:26:10;;;;;;;;;;;11.30;85.70;;;;;;5100043;28;19904;-49
2023/10/17 08:36:53;;;;;;;;;;;11.50;81.80;;;;;;5093524;28;19914;-50
2023/10/17 08:42:14;;;;;;;;;;;11.60;81.70;;;;;;5112704;28;19904;-49
2023/10/17 08:44:46;;;;;;;;;;;11.70;81.70;;;;;;5097604;28;19912;-49
2023/10/17 08:47:19;;;;;;;;;;;11.90;81.80;;;;;;5095415;28;19915;-48
2023/10/17 08:50:01;;;;;;;;;;;11.90;80.30;;;;;;5093283;28;19915;-50
2023/10/17 08:52:35;;;;;;;;;;;11.90;78.90;;;;;;5094204;28;20537;-49
2023/10/17 08:55:15;;;;;;;;;;;11.90;77.80;;;;;;5113100;28;20340;-50
2023/10/17 08:57:42;;;;;;;;;;;12.00;78.60;;;;;;5112956;28;19916;-49
2023/10/17 09:02:35;;;;;;;;;;;12.20;78.50;;;;;;5100450;28;20372;-49
2023/10/17 09:05:47;;;;;;;;;;;12.20;76.90;;;;;;5093444;28;19943;-50
2023/10/17 09:08:11;;;;;;;;;;;12.30;77.40;;;;;;5103253;28;19949;-50
2023/10/17 09:10:41;;;;;;;;;;;12.30;75.10;;;;;;5096574;28;19908;-48
2023/10/17 09:15:57;;;;;;;;;;;12.50;74.80;;;;;;5094386;28;19926;-51
2023/10/17 09:18:27;;;;;;;;;;;12.60;74.30;;;;;;5113139;28;20259;-51
2023/10/17 09:20:57;;;;;;;;;;;12.60;73.90;;;;;;5112777;28;20064;-51
2023/10/17 09:23:24;;;;;;;;;;;12.70;74.10;;;;;;5082862;28;20521;-51
2023/10/17 09:25:55;;;;;;;;;;;12.80;73.40;;;;;;5112805;28;19979;-51
2023/10/17 09:28:26;;;;;;;;;;;12.70;73.00;;;;;;5103308;28;19908;-51
2023/10/17 09:31:02;;;;;;;;;;;12.60;72.10;;;;;;5075840;28;19912;-50
2023/10/17 09:33:30;;;;;;;;;;;12.40;71.50;;;;;;5094636;28;19923;-48
2023/10/17 09:35:59;;;;;;;;;;;12.30;72.10;;;;;;5112724;28;19935;-49
2023/10/17 09:38:26;;;;;;;;;;;12.40;72.90;;;;;;5081709;28;20344;-49
2023/10/17 09:41:03;;;;;;;;;;;12.60;72.70;;;;;;5111445;28;19915;-54
2023/10/17 09:43:29;;;;;;;;;;;12.80;72.10;;;;;;5116730;28;19904;-48
2023/10/17 09:46:06;;;;;;;;;;;13.00;71.60;;;;;;5080946;28;20360;-50
2023/10/17 09:48:36;;;;;;;;;;;13.20;70.10;;;;;;5116564;28;20017;-48
2023/10/17 09:51:06;;;;;;;;;;;13.50;69.10;;;;;;5116172;28;19950;-48
2023/10/17 09:53:35;;;;;;;;;;;13.60;68.50;;;;;;5085199;28;20002;-48
2023/10/17 09:56:09;;;;;;;;;;;13.60;67.30;;;;;;5058261;28;19908;-49
2023/10/17 09:58:38;;;;;;;;;;;13.60;66.60;;;;;;5041032;28;19908;-50
2023/10/17 10:01:22;;;;;;;;;;;13.70;65.90;;;;;;5057815;28;19951;-49
2023/10/17 10:04:02;;;;;;;;;;;13.70;66.80;;;;;;5088117;28;19912;-52
2023/10/17 10:06:46;;;;;;;;;;;13.70;67.50;;;;;;5095088;28;19920;-48
2023/10/17 10:09:26;;;;;;;;;;;13.80;68.00;;;;;;5094681;28;20293;-49
2023/10/17 10:12:11;;;;;;;;;;;13.80;66.90;;;;;;5089505;28;19908;-50
2023/10/17 10:14:42;;;;;;;;;;;13.90;68.80;;;;;;5076777;28;19946;-49
2023/10/17 10:17:21;;;;;;;;;;;13.90;68.10;;;;;;5087687;28;19923;-49
2023/10/17 10:19:50;;;;;;;;;;;14.10;67.20;;;;;;5079165;28;19922;-50
2023/10/17 10:22:20;;;;;;;;;;;14.00;67.30;;;;;;5095534;28;19913;-49
2023/10/17 10:24:47;;;;;;;;;;;14.00;66.40;;;;;;5095032;28;19915;-49
2023/10/17 10:27:17;;;;;;;;;;;14.10;63.80;;;;;;5060966;28;19912;-49
2023/10/17 10:30:19;;;;;;;;;;;14.10;66.90;;;;;;5084256;28;19972;-48
2023/10/17 10:32:46;;;;;;;;;;;14.20;67.70;;;;;;5094591;28;20263;-49
2023/10/17 10:35:11;;;;;;;;;;;14.10;64.50;;;;;;5077421;28;19962;-50
2023/10/17 10:37:54;;;;;;;;;;;14.00;64.90;;;;;;5095232;28;20480;-51
2023/10/17 10:40:36;;;;;;;;;;;14.00;65.20;;;;;;5091090;28;19908;-52
2023/10/17 10:43:06;;;;;;;;;;;14.20;65.00;;;;;;5077139;28;19991;-49
2023/10/17 10:46:00;;;;;;;;;;;14.10;63.70;;;;;;5079815;28;19912;-48
2023/10/17 10:48:32;;;;;;;;;;;14.10;65.90;;;;;;5078790;28;19908;-49
2023/10/17 10:50:59;;;;;;;;;;;14.20;66.50;;;;;;5075577;28;19923;-51
2023/10/17 10:53:30;;;;;;;;;;;14.20;64.70;;;;;;5113385;28;19915;-48
2023/10/17 10:55:56;;;;;;;;;;;14.20;66.40;;;;;;5112384;28;19933;-49
2023/10/17 10:58:27;;;;;;;;;;;14.00;65.20;;;;;;5097998;28;19907;-54
2023/10/17 11:00:58;;;;;;;;;;;13.90;65.90;;;;;;5096918;28;19911;-52
2023/10/17 11:03:25;;;;;;;;;;;13.90;66.30;;;;;;5087074;28;19908;-49
2023/10/17 11:06:08;;;;;;;;;;;14.00;65.70;;;;;;5076709;28;19916;-53
2023/10/17 11:08:45;;;;;;;;;;;14.10;66.30;;;;;;5084353;28;19951;-54
2023/10/17 11:11:11;;;;;;;;;;;14.10;65.50;;;;;;5074595;22;19920;-55
2023/10/17 11:13:40;;;;;;;;;;;14.20;63.80;;;;;;5036673;28;19920;-49
2023/10/17 11:16:08;;;;;;;;;;;14.20;65.20;;;;;;5034467;28;19992;-52
2023/10/17 11:18:52;;;;;;;;;;;14.10;62.70;;;;;;5038585;28;20334;-55
2023/10/17 11:21:20;;;;;;;;;;;14.20;64.80;;;;;;5036577;28;19967;-51
2023/10/17 11:23:59;;;;;;;;;;;14.20;63.90;;;;;;5038441;28;19979;-56
2023/10/17 11:26:28;;;;;;;;;;;14.20;63.70;;;;;;5033661;28;19920;-56
2023/10/17 11:29:04;;;;;;;;;;;14.20;66.10;;;;;;5039843;28;20004;-53
2023/10/17 11:31:31;;;;;;;;;;;14.30;65.40;;;;;;5053788;28;19909;-52
2023/10/17 11:34:07;;;;;;;;;;;14.10;62.70;;;;;;5053585;28;19913;-51
2023/10/17 11:37:02;;;;;;;;;;;13.90;60.80;;;;;;5037739;28;19909;-49
2023/10/17 11:39:37;;;;;;;;;;;13.90;61.80;;;;;;5044834;28;19912;-52
2023/10/17 11:42:06;;;;;;;;;;;13.80;64.50;;;;;;5032650;28;19928;-56
2023/10/17 11:44:39;;;;;;;;;;;13.70;63.00;;;;;;5033063;28;19919;-54
2023/10/17 11:47:20;;;;;;;;;;;13.60;63.30;;;;;;5032695;28;20361;-56
2023/10/17 11:49:49;;;;;;;;;;;13.50;62.90;;;;;;5032857;28;19909;-55
2023/10/17 11:52:15;;;;;;;;;;;13.40;64.10;;;;;;5048868;28;19909;-51
2023/10/17 11:54:56;;;;;;;;;;;13.40;64.30;;;;;;5050318;28;19978;-54
2023/10/17 11:57:23;;;;;;;;;;;13.40;63.70;;;;;;5033580;28;19909;-53
2023/10/17 12:00:19;;;;;;;;;;;13.40;63.10;;;;;;5033244;28;20392;-56
2023/10/17 12:02:47;;;;;;;;;;;13.30;63.80;;;;;;5041868;28;19909;-56
2023/10/17 12:05:22;;;;;;;;;;;13.30;63.80;;;;;;5046969;28;20000;-52
2023/10/17 12:07:53;;;;;;;;;;;13.40;63.80;;;;;;5052262;28;19916;-53
2023/10/17 12:10:20;;;;;;;;;;;13.40;66.20;;;;;;5056993;28;19977;-50
2023/10/17 12:12:47;;;;;;;;;;;13.40;64.20;;;;;;5062296;28;19939;-55
2023/10/17 12:15:20;;;;;;;;;;;13.30;63.00;;;;;;5066786;28;19913;-49
2023/10/17 12:17:52;;;;;;;;;;;13.10;62.20;;;;;;5053085;28;19909;-54
2023/10/17 12:20:25;;;;;;;;;;;13.10;63.70;;;;;;5052840;28;19987;-51
2023/10/17 12:22:56;;;;;;;;;;;13.10;64.30;;;;;;5056694;28;19912;-54
2023/10/17 12:25:23;;;;;;;;;;;13.00;65.70;;;;;;5073379;28;19950;-53
2023/10/17 12:27:56;;;;;;;;;;;13.00;66.50;;;;;;5073190;28;19904;-51
2023/10/17 12:30:27;;;;;;;;;;;12.90;64.50;;;;;;5060873;28;19909;-55
2023/10/17 12:32:55;;;;;;;;;;;12.90;64.90;;;;;;5055274;28;19912;-55
2023/10/17 12:35:22;;;;;;;;;;;12.90;65.20;;;;;;5072040;28;19931;-53
2023/10/17 12:37:57;;;;;;;;;;;12.80;65.60;;;;;;5072660;28;19904;-52
2023/10/17 12:40:38;;;;;;;;;;;12.80;65.60;;;;;;5069390;28;19909;-51
2023/10/17 12:43:05;;;;;;;;;;;12.80;65.10;;;;;;5052762;28;19931;-55
2023/10/17 12:45:32;;;;;;;;;;;12.80;65.30;;;;;;5058695;28;19940;-48
2023/10/17 12:47:59;;;;;;;;;;;12.80;65.00;;;;;;5064262;28;20284;-51
2023/10/17 12:50:35;;;;;;;;;;;12.80;65.60;;;;;;5072338;28;19955;-49
2023/10/17 12:53:06;;;;;;;;;;;12.80;65.90;;;;;;5072804;28;20262;-50
2023/10/17 12:55:34;;;;;;;;;;;12.90;66.60;;;;;;5067044;28;19924;-50
2023/10/17 12:58:02;;;;;;;;;;;12.80;66.20;;;;;;5068610;28;19909;-51
2023/10/17 13:00:30;;;;;;;;;;;12.90;66.20;;;;;;5062415;28;20281;-52
2023/10/17 13:02:58;;;;;;;;;;;12.90;66.90;;;;;;5052763;28;19952;-52
2023/10/17 13:05:26;;;;;;;;;;;12.80;66.00;;;;;;5052643;28;20330;-54
2023/10/17 13:07:52;;;;;;;;;;;12.70;66.70;;;;;;5072217;28;19991;-49
2023/10/17 13:10:49;;;;;;;;;;;12.70;66.30;;;;;;5060174;28;19951;-52
2023/10/17 13:13:24;;;;;;;;;;;12.70;66.10;;;;;;5072860;28;19919;-51
2023/10/17 13:15:59;;;;;;;;;;;12.60;65.80;;;;;;5075132;28;19912;-55
2023/10/17 13:18:28;;;;;;;;;;;12.60;65.90;;;;;;5079524;28;19904;-56
2023/10/17 13:20:57;;;;;;;;;;;12.50;66.10;;;;;;5094744;28;19931;-53
2023/10/17 13:23:26;;;;;;;;;;;12.50;66.00;;;;;;5083223;28;19927;-51
2023/10/17 13:25:53;;;;;;;;;;;12.50;66.40;;;;;;5095712;28;20509;-53
2023/10/17 13:28:20;;;;;;;;;;;12.50;65.90;;;;;;5075967;28;19916;-49
2023/10/17 13:30:47;;;;;;;;;;;12.50;67.00;;;;;;5079020;28;19999;-49
2023/10/17 13:33:14;;;;;;;;;;;12.40;66.80;;;;;;5096289;28;19912;-51
2023/10/17 13:35:42;;;;;;;;;;;12.40;67.00;;;;;;5082977;28;19958;-56
2023/10/17 13:38:09;;;;;;;;;;;12.40;67.60;;;;;;5075121;28;20007;-54
2023/10/17 13:40:39;;;;;;;;;;;12.40;67.10;;;;;;5090634;28;19904;-54
2023/10/17 13:43:10;;;;;;;;;;;12.40;66.20;;;;;;5094783;28;19911;-51
2023/10/17 13:45:40;;;;;;;;;;;12.40;66.50;;;;;;5082460;28;20434;-52
2023/10/17 13:48:08;;;;;;;;;;;12.40;66.80;;;;;;5093562;28;19912;-56
2023/10/17 13:50:41;;;;;;;;;;;12.40;66.40;;;;;;5095854;28;19912;-56
2023/10/17 13:53:14;;;;;;;;;;;12.40;66.50;;;;;;5096185;28;19915;-56
2023/10/17 13:55:42;;;;;;;;;;;12.30;67.10;;;;;;5090777;28;19912;-53
2023/10/17 13:58:11;;;;;;;;;;;12.30;67.80;;;;;;5076045;28;19915;-54
2023/10/17 14:00:51;;;;;;;;;;;12.30;66.60;;;;;;5081279;28;19911;-49
2023/10/17 14:03:17;;;;;;;;;;;12.30;67.40;;;;;;5094420;28;20245;-51
2023/10/17 14:05:47;;;;;;;;;;;12.30;67.70;;;;;;5075579;28;19908;-55
2023/10/17 14:08:26;;;;;;;;;;;12.30;67.50;;;;;;5081868;28;19926;-51
2023/10/17 14:10:52;;;;;;;;;;;12.30;67.40;;;;;;5090862;28;20387;-53
2023/10/17 14:13:20;;;;;;;;;;;12.30;67.50;;;;;;5091385;28;20007;-53
2023/10/17 14:15:51;;;;;;;;;;;12.30;67.60;;;;;;5091636;28;19915;-52
2023/10/17 14:18:18;;;;;;;;;;;12.20;66.90;;;;;;5094830;28;19947;-54
2023/10/17 14:23:32;;;;;;;;;;;12.20;67.70;;;;;;5082197;28;19981;-53
2023/10/17 14:26:09;;;;;;;;;;;12.20;67.50;;;;;;5090835;28;19982;-52
2023/10/17 14:28:37;;;;;;;;;;;12.20;67.10;;;;;;5074788;28;20373;-51
2023/10/17 14:31:05;;;;;;;;;;;12.20;66.90;;;;;;5093429;28;19908;-55
2023/10/17 14:33:39;;;;;;;;;;;12.10;67.10;;;;;;5094789;28;19918;-49
2023/10/17 14:36:09;;;;;;;;;;;12.00;66.40;;;;;;5103245;28;19920;-52
2023/10/17 14:38:37;;;;;;;;;;;12.00;66.20;;;;;;5094723;28;19936;-54
2023/10/17 14:41:12;;;;;;;;;;;12.00;66.80;;;;;;5082881;28;19904;-49
2023/10/17 14:43:43;;;;;;;;;;;12.00;67.20;;;;;;5074637;28;19919;-52
2023/10/17 14:46:11;;;;;;;;;;;12.00;67.50;;;;;;5074807;28;20443;-52
2023/10/17 14:48:37;;;;;;;;;;;12.00;67.90;;;;;;5079512;28;19923;-56
2023/10/17 14:51:06;;;;;;;;;;;12.00;68.90;;;;;;5087144;28;20329;-50
2023/10/17 14:53:35;;;;;;;;;;;12.00;69.70;;;;;;5094501;28;19912;-53
2023/10/17 14:56:06;;;;;;;;;;;11.90;69.40;;;;;;5087153;28;19908;-56
2023/10/17 14:58:33;;;;;;;;;;;11.90;68.50;;;;;;5074606;28;20328;-52
2023/10/17 15:01:00;;;;;;;;;;;11.90;68.60;;;;;;5081915;28;19915;-54
2023/10/17 15:03:27;;;;;;;;;;;11.90;69.10;;;;;;5077697;28;19908;-54
2023/10/17 15:05:59;;;;;;;;;;;11.90;69.30;;;;;;5094669;28;19904;-55
2023/10/17 15:08:26;;;;;;;;;;;11.90;70.00;;;;;;5094086;28;19904;-52
2023/10/17 15:10:54;;;;;;;;;;;11.80;70.10;;;;;;5083418;28;19920;-49
2023/10/17 15:13:19;;;;;;;;;;;11.80;70.60;;;;;;5071599;28;19957;-52
2023/10/17 15:15:51;;;;;;;;;;;11.80;70.90;;;;;;5074096;28;20003;-48
2023/10/17 15:18:17;;;;;;;;;;;11.70;71.40;;;;;;5074245;28;19908;-53
2023/10/17 15:20:44;;;;;;;;;;;11.70;71.00;;;;;;5064333;28;20237;-50
2023/10/17 15:23:11;;;;;;;;;;;11.60;70.50;;;;;;5073754;28;19909;-56
2023/10/17 15:25:37;;;;;;;;;;;11.60;71.10;;;;;;5073811;28;19908;-52
2023/10/17 15:28:07;;;;;;;;;;;11.60;71.70;;;;;;5073595;28;20352;-53
2023/10/17 15:30:34;;;;;;;;;;;11.50;72.10;;;;;;5051618;28;19917;-51
2023/10/17 15:33:02;;;;;;;;;;;11.50;72.40;;;;;;5054202;28;19908;-53
2023/10/17 15:35:31;;;;;;;;;;;11.40;72.10;;;;;;5074124;28;19908;-53
2023/10/17 15:38:01;;;;;;;;;;;11.50;72.70;;;;;;5072669;28;19912;-55
2023/10/17 15:40:28;;;;;;;;;;;11.40;73.80;;;;;;5071907;28;20424;-54
2023/10/17 15:42:55;;;;;;;;;;;11.40;74.70;;;;;;5073906;28;19904;-56
2023/10/17 15:45:22;;;;;;;;;;;11.30;75.40;;;;;;5073067;28;20269;-54
2023/10/17 15:47:54;;;;;;;;;;;11.30;76.00;;;;;;5070640;28;20349;-53
2023/10/17 15:50:23;;;;;;;;;;;11.20;76.60;;;;;;5053521;28;19999;-52
2023/10/17 15:52:50;;;;;;;;;;;11.20;77.20;;;;;;5064437;28;19904;-54
2023/10/17 15:55:18;;;;;;;;;;;11.00;77.40;;;;;;5073301;28;20333;-52
2023/10/17 15:57:44;;;;;;;;;;;10.90;77.40;;;;;;5052663;28;19908;-54
2023/10/17 16:00:19;;;;;;;;;;;10.90;77.80;;;;;;5055550;28;20010;-56
2023/10/17 16:02:46;;;;;;;;;;;10.90;78.70;;;;;;5054629;28;20309;-52
2023/10/17 16:05:13;;;;;;;;;;;10.70;79.40;;;;;;5073218;28;19920;-51
2023/10/17 16:07:43;;;;;;;;;;;10.60;79.70;;;;;;5064752;28;20058;-50
2023/10/17 16:10:13;;;;;;;;;;;10.50;80.00;;;;;;5074818;28;19912;-51
2023/10/17 16:12:40;;;;;;;;;;;10.50;80.20;;;;;;5088362;28;19912;-55
2023/10/17 16:15:08;;;;;;;;;;;10.40;80.40;;;;;;5092126;28;19961;-51
2023/10/17 16:17:34;;;;;;;;;;;10.20;80.50;;;;;;5092587;28;20408;-53
2023/10/17 16:20:08;;;;;;;;;;;10.20;80.70;;;;;;5078461;28;19909;-54
2023/10/17 16:22:35;;;;;;;;;;;10.10;81.10;;;;;;5088533;28;19986;-50
2023/10/17 16:25:04;;;;;;;;;;;9.90;81.60;;;;;;5092278;28;19927;-53
2023/10/17 16:27:34;;;;;;;;;;;9.90;82.00;;;;;;5089541;28;19912;-52
2023/10/17 16:30:12;;;;;;;;;;;9.80;82.60;;;;;;5093149;28;20608;-53
2023/10/17 16:32:42;;;;;;;;;;;9.70;82.80;;;;;;5091675;28;20325;-53
2023/10/17 16:35:07;;;;;;;;;;;9.50;83.10;;;;;;5091896;28;19937;-51
2023/10/17 16:37:36;;;;;;;;;;;9.50;83.00;;;;;;5088229;28;20254;-54
2023/10/17 16:40:10;;;;;;;;;;;9.40;83.20;;;;;;5088882;28;20411;-52
2023/10/17 16:42:38;;;;;;;;;;;9.40;83.50;;;;;;5086630;28;20019;-50
2023/10/17 16:45:07;;;;;;;;;;;9.30;83.80;;;;;;5093100;28;19946;-51
2023/10/17 16:47:34;;;;;;;;;;;9.20;84.00;;;;;;5083858;28;19908;-51
2023/10/17 16:50:05;;;;;;;;;;;9.20;84.10;;;;;;5086798;28;19934;-51
2023/10/17 16:52:32;;;;;;;;;;;9.10;84.20;;;;;;5095338;28;19915;-52
2023/10/17 16:54:58;;;;;;;;;;;9.00;84.40;;;;;;5096770;28;19923;-52
2023/10/17 16:57:24;;;;;;;;;;;9.00;84.60;;;;;;5096789;28;20001;-50
2023/10/17 16:59:51;;;;;;;;;;;8.90;85.10;;;;;;5096663;28;19908;-48
2023/10/17 17:02:18;;;;;;;;;;;8.90;85.20;;;;;;5079501;28;20269;-51
2023/10/17 17:04:44;;;;;;;;;;;8.80;85.40;;;;;;5076716;28;19999;-49
2023/10/17 17:07:10;;;;;;;;;;;8.70;85.60;;;;;;5082783;28;20345;-50
2023/10/17 17:09:38;;;;;;;;;;;8.70;85.80;;;;;;5096669;28;19904;-52
2023/10/17 17:12:07;;;;;;;;;;;8.60;85.80;;;;;;5096531;28;19955;-48
2023/10/17 17:14:36;;;;;;;;;;;8.60;85.60;;;;;;5076881;28;19912;-51
2023/10/17 17:17:04;;;;;;;;;;;8.50;85.70;;;;;;5081210;28;19934;-51